Time;durP1;ratioP1;P1;durP2;ratioP2;P2;SDS_P1;SDS_P2;PMS_P1;PMS_P2;Temp;Humidity;BMP_temperature;BMP_pressure;BME280_temperature;BME280_humidity;BME280_pressure;Samples;Min_cycle;Max_cycle;Signal;HPM_P1;HPM_P2
2021/03/27 00:02:02;;;;;;;16.27;14.23;;;;;;;13.90;44.17;100636.75;5058374;28;20487;-73
2021/03/27 00:04:50;;;;;;;11.90;10.63;;;;;;;14.06;43.21;100642.75;5077759;28;20422;-74
2021/03/27 00:07:30;;;;;;;11.87;10.17;;;;;;;14.08;43.59;100638.38;5059979;28;20417;-74
2021/03/27 00:10:18;;;;;;;10.80;9.70;;;;;;;13.79;43.79;100635.03;5060073;28;20466;-73
2021/03/27 00:12:51;;;;;;;12.40;10.97;;;;;;;13.56;44.33;100626.44;5029792;28;20469;-72
2021/03/27 00:15:32;;;;;;;16.83;11.47;;;;;;;13.70;43.97;100626.38;5040286;28;20482;-73
2021/03/27 00:18:02;;;;;;;11.83;10.60;;;;;;;13.72;44.22;100620.25;5040224;28;20782;-73
2021/03/27 00:20:39;;;;;;;10.40;9.37;;;;;;;13.44;44.67;100622.13;5040126;28;20427;-73
2021/03/27 00:23:09;;;;;;;13.47;10.60;;;;;;;13.75;44.28;100614.97;5040120;28;20411;-73
2021/03/27 00:25:38;;;;;;;14.83;10.63;;;;;;;13.62;44.44;100614.16;5039954;28;20474;-72
2021/03/27 00:28:10;;;;;;;13.30;10.50;;;;;;;13.67;44.29;100614.16;5061794;28;20514;-73
2021/03/27 00:30:45;;;;;;;12.50;10.73;;;;;;;13.70;44.64;100611.50;5063298;28;20600;-73
2021/03/27 00:33:10;;;;;;;13.37;11.17;;;;;;;13.56;44.63;100602.88;5081204;28;20430;-73
2021/03/27 00:35:44;;;;;;;12.30;11.00;;;;;;;13.25;45.29;100602.97;5063492;28;20475;-72
2021/03/27 00:38:15;;;;;;;14.53;10.37;;;;;;;13.29;45.15;100591.59;5063333;28;20205;-72
2021/03/27 00:40:44;;;;;;;16.30;12.03;;;;;;;13.27;45.44;100598.56;5046587;28;20431;-72
2021/03/27 00:43:22;;;;;;;11.37;10.17;;;;;;;12.88;46.41;100593.47;5062818;28;20496;-72
2021/03/27 00:45:56;;;;;;;13.50;11.03;;;;;;;13.14;46.64;100593.41;5063505;28;20804;-72
2021/03/27 00:48:27;;;;;;;13.13;10.20;;;;;;;13.10;45.69;100591.66;5063868;28;20431;-73
2021/03/27 00:50:55;;;;;;;11.67;10.57;;;;;;;13.01;46.05;100580.34;5062925;28;20427;-73
2021/03/27 00:54:02;;;;;;;11.83;10.10;;;;;;;13.40;45.45;100571.50;5062803;28;20426;-73
2021/03/27 00:56:30;;;;;;;17.37;10.30;;;;;;;13.28;45.49;100563.69;5054242;28;20415;-73
2021/03/27 00:58:58;;;;;;;15.00;10.27;;;;;;;13.16;46.22;100564.59;5042958;28;20784;-72
2021/03/27 01:01:25;;;;;;;11.33;10.17;;;;;;;13.28;45.61;100561.06;5042717;28;20733;-73
2021/03/27 01:03:54;;;;;;;11.87;10.67;;;;;;;13.21;46.07;100554.13;5042877;28;20430;-74
2021/03/27 01:06:26;;;;;;;12.00;10.80;;;;;;;13.11;46.39;100548.91;5042929;28;20460;-74
2021/03/27 01:08:52;;;;;;;11.23;10.13;;;;;;;12.98;45.88;100544.59;5042545;28;20464;-73
2021/03/27 01:11:22;;;;;;;12.80;11.20;;;;;;;13.21;46.25;100541.03;5042762;28;20514;-73
2021/03/27 01:13:51;;;;;;;12.40;11.20;;;;;;;13.20;45.97;100542.75;5058953;28;20732;-73
2021/03/27 01:16:21;;;;;;;16.13;12.40;;;;;;;13.27;46.94;100538.38;5062639;28;20777;-75
2021/03/27 01:18:51;;;;;;;14.00;11.07;;;;;;;13.37;44.94;100526.13;5063306;28;20378;-75
2021/03/27 01:21:26;;;;;;;13.33;11.43;;;;;;;13.26;45.81;100527.03;5062387;28;20576;-75
2021/03/27 01:23:56;;;;;;;12.97;11.17;;;;;;;13.09;46.20;100528.84;5062382;28;20393;-75
2021/03/27 01:26:23;;;;;;;12.70;11.40;;;;;;;12.89;46.52;100508.00;5079932;28;20431;-75
2021/03/27 01:28:58;;;;;;;12.50;11.23;;;;;;;13.13;45.84;100501.78;5061896;28;20470;-74
2021/03/27 01:31:34;;;;;;;15.70;11.90;;;;;;;13.07;46.18;100502.69;5062922;28;21334;-75
2021/03/27 01:34:04;;;;;;;13.50;11.00;;;;;;;13.14;46.06;100500.94;5062549;28;20415;-74
2021/03/27 01:36:41;;;;;;;12.20;11.00;;;;;;;13.04;45.88;100502.69;5062486;28;20407;-74
2021/03/27 01:39:13;;;;;;;12.07;10.80;;;;;;;13.22;45.95;100490.41;5061221;28;20415;-75
2021/03/27 01:41:47;;;;;;;13.47;11.37;;;;;;;13.24;45.79;100492.13;5062207;28;20423;-75
2021/03/27 01:44:31;;;;;;;18.23;12.50;;;;;;;13.10;45.87;100489.59;5079288;28;20397;-75
2021/03/27 01:46:58;;;;;;;13.20;11.90;;;;;;;13.44;45.49;100480.72;5079543;28;20400;-75
2021/03/27 01:49:42;;;;;;;12.50;11.07;;;;;;;12.93;46.80;100483.56;5061823;28;20481;-73
2021/03/27 01:52:28;;;;;;;12.53;11.33;;;;;;;11.95;49.52;100481.16;5078864;28;20466;-74
2021/03/27 01:55:17;;;;;;;11.30;10.23;;;;;;;12.64;48.15;100463.63;5079207;28;20398;-74
2021/03/27 01:58:10;;;;;;;17.90;11.40;;;;;;;13.01;47.63;100466.06;5062113;28;20412;-73
2021/03/27 02:00:39;;;;;;;12.70;10.73;;;;;;;12.84;46.95;100463.56;5061574;28;20454;-74
2021/03/27 02:03:25;;;;;;;11.93;10.33;;;;;;;12.71;47.03;100460.09;5061952;28;20416;-72
2021/03/27 02:06:01;;;;;;;12.13;10.93;;;;;;;12.43;47.76;100465.44;5061724;28;20816;-72
2021/03/27 02:08:55;;;;;;;11.47;9.67;;;;;;;12.44;47.15;100469.75;5061414;28;20430;-72
2021/03/27 02:11:50;;;;;;;11.90;10.57;;;;;;;12.66;47.49;100464.47;5078992;28;20439;-72
2021/03/27 02:14:32;;;;;;;11.33;10.13;;;;;;;12.44;47.64;100461.06;5061628;28;20435;-72
2021/03/27 02:17:18;;;;;;;11.63;10.53;;;;;;;12.46;47.88;100454.06;5061527;28;20428;-72
2021/03/27 02:20:03;;;;;;;12.03;10.57;;;;;;;12.26;48.51;100459.38;5061644;28;20426;-72
2021/03/27 02:22:34;;;;;;;12.37;10.33;;;;;;;12.24;48.27;100450.66;5061344;28;20425;-72
2021/03/27 02:25:28;;;;;;;12.00;10.77;;;;;;;12.36;48.04;100455.00;5061435;28;20483;-72
2021/03/27 02:28:01;;;;;;;11.93;10.73;;;;;;;12.10;49.34;100438.47;5078412;28;20450;-72
2021/03/27 02:30:33;;;;;;;11.67;10.33;;;;;;;12.24;48.61;100434.97;5061449;28;20451;-73
2021/03/27 02:32:58;;;;;;;14.60;10.60;;;;;;;12.35;47.22;100425.34;5061507;28;20419;-73
2021/03/27 02:35:35;;;;;;;12.20;11.00;;;;;;;12.18;48.03;100422.78;5078574;28;20404;-73
2021/03/27 02:38:19;;;;;;;12.60;11.07;;;;;;;12.20;48.49;100428.00;5078389;28;20226;-72
2021/03/27 02:40:53;;;;;;;12.37;11.17;;;;;;;12.14;47.47;100421.06;5078696;28;20403;-72
2021/03/27 02:43:26;;;;;;;11.40;10.17;;;;;;;12.66;47.42;100416.53;5061100;28;20498;-74
2021/03/27 02:46:10;;;;;;;13.47;11.10;;;;;;;12.50;47.22;100418.34;5061614;28;20419;-75
2021/03/27 02:48:49;;;;;;;11.27;10.03;;;;;;;12.56;47.14;100415.72;5080965;28;20444;-73
2021/03/27 02:51:31;;;;;;;10.80;9.80;;;;;;;12.58;47.48;100411.34;5060781;28;20415;-73
2021/03/27 02:54:34;;;;;;;11.97;10.10;;;;;;;12.30;47.80;100414.06;5060697;28;20802;-73
2021/03/27 02:57:09;;;;;;;11.67;10.37;;;;;;;12.54;47.10;100420.06;4997813;28;20759;-73
2021/03/27 02:59:57;;;;;;;11.70;10.57;;;;;;;12.45;47.17;100411.38;5066255;28;20654;-73
2021/03/27 03:02:43;;;;;;;12.70;10.47;;;;;;;12.60;47.64;100413.06;5077972;28;20409;-74
2021/03/27 03:05:13;;;;;;;11.33;10.10;;;;;;;12.30;47.54;100408.81;5060751;28;20397;-73
2021/03/27 03:08:00;;;;;;;18.50;11.23;;;;;;;11.60;49.25;100413.25;5060876;28;20389;-73
2021/03/27 03:10:34;;;;;;;12.40;10.53;;;;;;;11.82;48.80;100410.63;5078287;28;20855;-74
2021/03/27 03:13:11;;;;;;;10.20;9.17;;;;;;;12.45;47.27;100406.16;5060568;28;20404;-74
2021/03/27 03:15:53;;;;;;;11.30;10.03;;;;;;;12.59;47.20;100397.38;5060872;28;20411;-75
2021/03/27 03:18:45;;;;;;;11.90;9.87;;;;;;;12.41;47.78;100404.44;5060792;28;20408;-74
2021/03/27 03:21:35;;;;;;;11.57;9.50;;;;;;;12.30;48.38;100399.22;5077649;28;20690;-74
2021/03/27 03:24:17;;;;;;;9.83;8.83;;;;;;;12.53;46.80;100407.84;5060545;28;20443;-74
2021/03/27 03:26:59;;;;;;;10.57;9.47;;;;;;;12.41;47.80;100401.81;5060781;28;20436;-74
2021/03/27 03:29:55;;;;;;;13.43;9.90;;;;;;;12.33;47.66;100395.75;5060621;28;20469;-72
2021/03/27 03:32:44;;;;;;;10.90;9.90;;;;;;;12.16;47.75;100400.16;5060178;28;20427;-72
2021/03/27 03:35:46;;;;;;;11.17;10.00;;;;;;;12.37;47.21;100407.06;5060817;28;20415;-73
2021/03/27 03:38:17;;;;;;;11.73;10.30;;;;;;;12.25;47.88;100410.56;5077851;28;20430;-72
2021/03/27 03:41:03;;;;;;;11.70;9.73;;;;;;;12.02;47.76;100411.50;5077976;28;20731;-73
2021/03/27 03:43:29;;;;;;;11.07;9.90;;;;;;;12.35;47.85;100404.44;5077471;28;20433;-72
2021/03/27 03:46:14;;;;;;;11.23;10.10;;;;;;;12.50;46.64;100408.72;5060462;28;20821;-72
2021/03/27 03:49:02;;;;;;;11.03;9.77;;;;;;;12.72;46.48;100399.06;5060159;28;20793;-72
2021/03/27 03:51:52;;;;;;;12.90;9.47;;;;;;;12.19;48.16;100411.47;5060349;28;20415;-73
2021/03/27 03:54:36;;;;;;;9.40;8.50;;;;;;;11.83;50.26;100415.84;5046124;28;20795;-72
2021/03/27 03:57:29;;;;;;;12.10;9.00;;;;;;;11.85;51.55;100421.06;5077724;28;20450;-72
2021/03/27 04:00:30;;;;;;;10.47;9.47;;;;;;;11.66;51.64;100425.41;5060188;28;20405;-72
2021/03/27 04:03:13;;;;;;;10.53;9.37;;;;;;;11.79;52.41;100440.22;5072754;28;20452;-72
2021/03/27 04:05:58;;;;;;;10.17;9.10;;;;;;;11.68;52.90;100437.59;5081427;28;20463;-73
2021/03/27 04:08:39;;;;;;;12.20;10.33;;;;;;;11.45;53.73;100443.66;5063861;28;20431;-73
2021/03/27 04:11:23;;;;;;;11.47;10.37;;;;;;;11.59;54.75;100448.03;5063998;28;20431;-72
2021/03/27 04:13:53;;;;;;;12.07;10.50;;;;;;;11.37;56.57;100465.44;5081391;28;20759;-72
2021/03/27 04:16:21;;;;;;;14.07;10.70;;;;;;;10.46;61.57;100486.81;5063912;28;20484;-72
2021/03/27 04:18:57;;;;;;;11.80;10.70;;;;;;;10.16;64.02;100490.03;5063705;28;20680;-72
2021/03/27 04:21:36;;;;;;;11.93;10.83;;;;;;;10.42;65.13;100513.72;5063821;28;20457;-72
2021/03/27 04:24:08;;;;;;;11.13;9.73;;;;;;;10.05;66.68;100526.41;5063787;28;20527;-71
2021/03/27 04:26:55;;;;;;;11.50;10.40;;;;;;;9.83;67.89;100528.81;5063543;28;20431;-71
2021/03/27 04:29:37;;;;;;;11.53;8.97;;;;;;;9.33;69.54;100547.41;5063759;28;20489;-72
2021/03/27 04:32:06;;;;;;;10.27;9.30;;;;;;;9.83;68.21;100548.78;5063587;28;20417;-72
2021/03/27 04:34:36;;;;;;;10.93;9.80;;;;;;;9.17;71.13;100567.16;5080845;28;20816;-72
2021/03/27 04:37:06;;;;;;;11.10;9.97;;;;;;;9.44;71.10;100566.59;5063352;28;20438;-71
2021/03/27 04:39:58;;;;;;;9.77;8.73;;;;;;;9.36;70.56;100581.25;5081054;28;20439;-71
2021/03/27 04:42:41;;;;;;;10.03;8.00;;;;;;;8.81;72.54;100583.97;5063420;28;20736;-72
2021/03/27 04:45:21;;;;;;;7.40;6.60;;;;;;;8.34;73.06;100593.66;5063493;28;20415;-71
2021/03/27 04:48:01;;;;;;;5.77;5.00;;;;;;;8.03;73.43;100600.91;5066281;28;20502;-73
2021/03/27 04:50:33;;;;;;;5.50;5.00;;;;;;;8.77;71.49;100599.53;5063307;28;20574;-74
2021/03/27 04:53:25;;;;;;;4.70;4.20;;;;;;;7.99;72.80;100614.69;5062948;28;20411;-72
2021/03/27 04:55:56;;;;;;;5.03;4.13;;;;;;;8.13;71.66;100619.25;5080343;28;20411;-71
2021/03/27 04:58:36;;;;;;;4.50;4.10;;;;;;;8.46;70.87;100620.69;5080507;28;20399;-72
2021/03/27 05:01:15;;;;;;;5.10;4.60;;;;;;;8.38;71.09;100618.81;5080465;28;20525;-73
2021/03/27 05:03:51;;;;;;;4.37;3.97;;;;;;;8.09;72.35;100623.50;5046103;28;20434;-73
2021/03/27 05:06:49;;;;;;;3.90;3.50;;;;;;;7.63;71.87;100623.53;5080218;28;20437;-72
2021/03/27 05:09:36;;;;;;;4.43;4.03;;;;;;;7.82;71.46;100647.22;5062672;28;20528;-73
2021/03/27 05:12:10;;;;;;;5.67;3.50;;;;;;;8.03;71.30;100639.00;5062646;28;20472;-73
2021/03/27 05:15:06;;;;;;;3.70;3.40;;;;;;;8.07;71.19;100654.63;5079837;28;20479;-72
2021/03/27 05:17:43;;;;;;;3.60;3.30;;;;;;;7.80;70.86;100652.41;5044785;28;20447;-72
2021/03/27 05:20:28;;;;;;;2.70;2.50;;;;;;;7.13;71.64;100667.41;5059775;28;20498;-72
2021/03/27 05:23:06;;;;;;;3.40;3.10;;;;;;;7.63;70.43;100670.25;5052031;28;20415;-72
2021/03/27 05:26:05;;;;;;;3.53;3.23;;;;;;;7.48;71.76;100678.59;5062506;28;20527;-73
2021/03/27 05:28:43;;;;;;;3.67;3.33;;;;;;;7.48;70.42;100678.59;5062436;28;20408;-73
2021/03/27 05:31:29;;;;;;;3.97;3.57;;;;;;;7.54;70.42;100686.47;5062489;28;20434;-72
2021/03/27 05:34:23;;;;;;;4.40;3.90;;;;;;;8.21;69.11;100683.47;5060875;28;20596;-72
2021/03/27 05:36:51;;;;;;;4.43;4.07;;;;;;;8.05;69.90;100690.09;5045502;28;20427;-72
2021/03/27 05:39:36;;;;;;;4.17;3.87;;;;;;;7.98;70.09;100692.53;5079634;28;20430;-72
2021/03/27 05:42:38;;;;;;;4.60;4.20;;;;;;;7.68;69.88;100689.34;5061140;28;20451;-72
2021/03/27 05:45:25;;;;;;;4.40;4.00;;;;;;;7.80;71.52;100700.84;5062381;28;20608;-72
2021/03/27 05:48:15;;;;;;;4.43;4.03;;;;;;;8.00;70.10;100702.13;5079388;28;20795;-72
2021/03/27 05:51:15;;;;;;;7.83;5.87;;;;;;;7.98;70.14;100706.38;5061009;28;20524;-72
2021/03/27 05:53:51;;;;;;;5.60;4.90;;;;;;;7.97;69.85;100708.94;5079310;28;20413;-72
2021/03/27 05:56:48;;;;;;;6.70;5.70;;;;;;;7.99;70.00;100715.94;5062070;28;20449;-72
2021/03/27 05:59:25;;;;;;;8.70;4.87;;;;;;;7.99;69.57;100712.47;5061238;28;20446;-73
2021/03/27 06:02:13;;;;;;;5.37;4.87;;;;;;;8.08;69.04;100713.53;5061510;28;20885;-72
2021/03/27 06:04:57;;;;;;;4.63;4.23;;;;;;;8.03;69.15;100712.56;5079197;28;20415;-71
2021/03/27 06:07:22;;;;;;;5.20;4.70;;;;;;;7.93;69.88;100716.69;5077474;28;20459;-73
2021/03/27 06:10:08;;;;;;;5.70;5.07;;;;;;;7.44;71.05;100719.97;5077232;28;20471;-72
2021/03/27 06:13:04;;;;;;;5.80;5.30;;;;;;;7.49;71.37;100720.94;5059043;28;20176;-72
2021/03/27 06:15:54;;;;;;;5.37;4.80;;;;;;;7.92;69.38;100727.91;5058980;28;20404;-72
2021/03/27 06:19:01;;;;;;;5.23;4.73;;;;;;;7.83;70.44;100726.84;5070243;28;20415;-72
2021/03/27 06:21:46;;;;;;;5.20;4.70;;;;;;;7.92;69.98;100729.66;5051544;28;20433;-72
2021/03/27 06:24:38;;;;;;;4.63;4.23;;;;;;;7.19;71.84;100735.84;5060638;28;20478;-73
2021/03/27 06:27:52;;;;;;;5.43;4.70;;;;;;;7.83;70.33;100742.44;5045833;28;20417;-72
2021/03/27 06:30:34;;;;;;;6.30;4.60;;;;;;;7.61;71.49;100744.56;5007642;28;20477;-72
2021/03/27 06:33:00;;;;;;;5.30;4.80;;;;;;;7.33;70.71;100740.47;5061163;28;20411;-72
2021/03/27 06:35:43;;;;;;;5.83;5.33;;;;;;;7.90;70.88;100747.78;5078411;28;20429;-72
2021/03/27 06:38:33;;;;;;;5.77;4.90;;;;;;;8.11;69.47;100749.06;5061002;28;20268;-74
2021/03/27 06:41:13;;;;;;;5.97;5.40;;;;;;;7.92;68.99;100755.59;5077642;28;20436;-73
2021/03/27 06:43:47;;;;;;;6.40;5.30;;;;;;;7.73;70.64;100746.56;5060373;28;20533;-73
2021/03/27 06:46:46;;;;;;;6.40;5.80;;;;;;;8.22;69.84;100752.72;5062979;28;20410;-73
2021/03/27 06:49:33;;;;;;;5.67;5.13;;;;;;;7.98;69.46;100766.09;5078291;28;20524;-72
2021/03/27 06:52:20;;;;;;;6.40;5.80;;;;;;;7.90;68.81;100762.47;5077536;28;20433;-72
2021/03/27 06:55:03;;;;;;;7.30;6.60;;;;;;;7.70;69.97;100765.53;5078425;28;20514;-74
2021/03/27 06:57:39;;;;;;;6.20;5.60;;;;;;;7.48;70.28;100771.97;5060850;28;20748;-72
2021/03/27 07:00:32;;;;;;;6.70;6.00;;;;;;;7.81;70.28;100773.53;5060757;28;20536;-73
2021/03/27 07:03:27;;;;;;;7.20;6.50;;;;;;;7.98;69.70;100781.66;5075531;28;20442;-74
2021/03/27 07:06:04;;;;;;;7.50;6.80;;;;;;;7.55;70.58;100781.63;5059876;28;20443;-73
2021/03/27 07:08:48;;;;;;;7.17;6.47;;;;;;;7.88;69.19;100784.94;5060376;28;20813;-73
2021/03/27 07:11:40;;;;;;;6.90;6.00;;;;;;;7.91;70.04;100787.59;5077982;28;20411;-73
2021/03/27 07:14:30;;;;;;;7.87;7.13;;;;;;;7.82;69.46;100793.47;5060214;28;20438;-73
2021/03/27 07:17:11;;;;;;;7.40;6.60;;;;;;;7.83;69.72;100802.13;5077967;28;20490;-72
2021/03/27 07:19:54;;;;;;;7.40;6.70;;;;;;;7.80;68.94;100796.88;5060530;28;20456;-72
2021/03/27 07:22:42;;;;;;;8.67;6.87;;;;;;;8.18;68.80;100800.25;5077855;28;20452;-72
2021/03/27 07:25:44;;;;;;;9.17;7.50;;;;;;;8.11;68.71;100813.97;5077163;28;20485;-72
2021/03/27 07:28:20;;;;;;;7.87;6.53;;;;;;;7.37;71.29;100833.06;5078156;28;20407;-72
2021/03/27 07:31:05;;;;;;;8.53;7.73;;;;;;;7.96;70.62;100829.25;5077964;28;20816;-72
2021/03/27 07:33:39;;;;;;;8.90;7.07;;;;;;;8.29;67.73;100841.16;5058698;28;20702;-73
2021/03/27 07:36:31;;;;;;;7.00;6.30;;;;;;;8.03;67.74;100847.56;5077824;28;20477;-72
2021/03/27 07:39:25;;;;;;;5.67;5.17;;;;;;;7.80;67.11;100865.22;5064491;28;20399;-73
2021/03/27 07:42:23;;;;;;;6.60;4.73;;;;;;;7.81;65.60;100845.34;5081806;28;20414;-73
2021/03/27 07:45:07;;;;;;;5.17;4.67;;;;;;;7.96;65.35;100855.19;5080627;28;20847;-72
2021/03/27 07:47:43;;;;;;;5.23;4.73;;;;;;;7.80;66.29;100866.94;5064572;28;20407;-72
2021/03/27 07:50:25;;;;;;;5.90;4.30;;;;;;;8.19;64.61;100860.88;5064330;28;20454;-73
2021/03/27 07:52:58;;;;;;;5.67;5.17;;;;;;;8.37;64.11;100858.66;5064372;28;20406;-73
2021/03/27 07:55:35;;;;;;;4.97;4.47;;;;;;;8.29;63.90;100861.94;5061582;28;20407;-73
2021/03/27 07:58:08;;;;;;;5.13;4.40;;;;;;;8.50;63.89;100856.38;5061939;28;20498;-74
2021/03/27 08:00:53;;;;;;;5.33;4.67;;;;;;;8.11;65.43;100870.22;5061658;28;20837;-73
2021/03/27 08:04:12;;;;;;;6.10;4.57;;;;;;;8.00;65.81;100876.06;5069724;28;20442;-76
2021/03/27 08:06:53;;;;;;;6.00;4.90;;;;;;;8.19;64.97;100877.34;5000525;28;20421;-72
2021/03/27 08:09:37;;;;;;;6.67;5.00;;;;;;;7.95;65.37;100890.66;5037828;28;20517;-72
2021/03/27 08:12:26;;;;;;;6.70;5.60;;;;;;;8.68;63.41;100884.44;5068760;28;20445;-77
2021/03/27 08:15:04;;;;;;;5.67;5.03;;;;;;;9.89;62.51;100889.94;5063263;28;20497;-75
2021/03/27 08:17:50;;;;;;;5.63;5.10;;;;;;;11.11;55.36;100884.53;5063846;28;20669;-76
2021/03/27 08:20:24;;;;;;;6.23;4.50;;;;;;;12.46;52.45;100875.91;5080914;28;20707;-75
2021/03/27 08:23:07;;;;;;;4.37;4.07;;;;;;;14.19;47.94;100876.91;5081462;28;20411;-74
2021/03/27 08:26:10;;;;;;;5.70;4.60;;;;;;;13.20;48.44;100872.59;5080158;28;20548;-72
2021/03/27 08:28:50;;;;;;;5.13;4.73;;;;;;;14.05;47.37;100876.94;5078152;28;20434;-75
2021/03/27 08:31:49;;;;;;;5.40;4.90;;;;;;;15.71;44.11;100863.72;5080362;28;20408;-76
2021/03/27 08:34:32;;;;;;;5.53;5.03;;;;;;;14.30;46.12;100877.72;5063394;28;20426;-76
2021/03/27 08:37:11;;;;;;;6.20;5.40;;;;;;;14.70;46.66;100876.72;5063165;28;20436;-73
2021/03/27 08:40:01;;;;;;;7.53;5.60;;;;;;;15.80;44.03;100868.91;5063411;28;20414;-75
2021/03/27 08:42:26;;;;;;;6.10;5.60;;;;;;;14.15;47.42;100884.78;5078843;28;20421;-72
2021/03/27 08:45:12;;;;;;;6.90;6.30;;;;;;;11.87;52.80;100890.38;5080136;28;20722;-72
2021/03/27 08:47:59;;;;;;;7.33;6.63;;;;;;;10.82;56.70;100888.59;5060629;28;20177;-72
2021/03/27 08:50:56;;;;;;;9.53;8.03;;;;;;;10.06;57.91;100911.91;5079544;28;20860;-71
2021/03/27 08:53:39;;;;;;;9.43;7.03;;;;;;;10.61;57.65;100911.81;5060240;28;20409;-70
2021/03/27 08:56:13;;;;;;;12.10;7.80;;;;;;;12.29;53.11;100901.97;5077293;28;20427;-72
2021/03/27 08:59:06;;;;;;;10.63;8.03;;;;;;;11.02;54.99;100923.56;5080177;28;20411;-73
2021/03/27 09:01:48;;;;;;;11.03;6.50;;;;;;;10.74;54.06;100919.78;5079982;28;20419;-73
2021/03/27 09:04:35;;;;;;;8.00;7.17;;;;;;;10.34;56.71;100933.16;5056670;28;20533;-72
2021/03/27 09:07:16;;;;;;;12.70;7.47;;;;;;;10.16;56.25;100923.38;5068357;28;20419;-71
2021/03/27 09:09:41;;;;;;;9.23;6.63;;;;;;;10.85;54.85;100925.13;5080060;28;20459;-72
2021/03/27 09:12:37;;;;;;;8.03;6.87;;;;;;;11.01;54.57;100926.16;5079716;28;20414;-71
2021/03/27 09:15:35;;;;;;;13.03;7.27;;;;;;;11.19;53.71;100928.09;5079789;28;20223;-71
2021/03/27 09:18:38;;;;;;;8.47;6.13;;;;;;;10.79;54.68;100929.41;5078047;28;20427;-72
2021/03/27 09:21:22;;;;;;;8.93;6.57;;;;;;;11.22;52.41;100944.66;5078371;28;20407;-75
2021/03/27 09:23:56;;;;;;;9.77;6.50;;;;;;;11.20;52.70;100950.72;5075861;28;20592;-75
2021/03/27 09:26:52;;;;;;;7.10;6.00;;;;;;;11.96;50.72;100944.44;5079370;28;20496;-75
2021/03/27 09:29:53;;;;;;;7.10;6.10;;;;;;;13.75;44.14;100941.63;5078812;28;20780;-75
2021/03/27 09:32:31;;;;;;;6.10;5.43;;;;;;;13.54;45.17;100939.88;5062199;28;20414;-76
2021/03/27 09:35:11;;;;;;;5.90;5.30;;;;;;;13.59;43.54;100940.75;5062259;28;20839;-75
2021/03/27 09:38:01;;;;;;;6.53;5.37;;;;;;;12.17;47.06;100948.09;5061392;28;20477;-76
2021/03/27 09:40:37;;;;;;;7.20;5.40;;;;;;;11.86;48.07;100940.00;5079004;28;20411;-75
2021/03/27 09:43:21;;;;;;;7.27;5.97;;;;;;;12.89;46.85;100937.09;5042212;28;20407;-75
2021/03/27 09:45:58;;;;;;;6.97;5.30;;;;;;;13.87;43.29;100935.50;5059536;28;20422;-75
2021/03/27 09:48:50;;;;;;;6.17;5.57;;;;;;;12.42;46.35;100942.13;5048185;28;20420;-75
2021/03/27 09:51:34;;;;;;;6.07;5.47;;;;;;;12.97;46.14;100945.84;5078221;28;20483;-75
2021/03/27 09:54:12;;;;;;;6.40;5.73;;;;;;;11.63;50.61;100953.75;5061862;28;20836;-76
2021/03/27 09:56:59;;;;;;;7.10;5.83;;;;;;;11.45;50.63;100960.53;5061214;28;20446;-75
2021/03/27 09:59:45;;;;;;;8.73;6.00;;;;;;;10.32;55.80;100967.88;5060719;28;20447;-75
2021/03/27 10:02:39;;;;;;;7.80;5.87;;;;;;;9.88;56.64;100987.19;5059130;28;20504;-76
2021/03/27 10:05:15;;;;;;;7.13;6.07;;;;;;;9.78;58.34;100975.72;5061514;28;20441;-75
2021/03/27 10:08:04;;;;;;;7.97;6.60;;;;;;;9.78;58.81;100983.53;5078923;28;20827;-75
2021/03/27 10:10:38;;;;;;;8.50;6.43;;;;;;;9.80;59.59;101007.88;5078886;28;20455;-75
2021/03/27 10:13:15;;;;;;;10.07;6.00;;;;;;;8.26;64.79;101041.97;5078612;28;20407;-74
2021/03/27 10:15:55;;;;;;;10.77;5.90;;;;;;;7.92;69.14;101067.97;5077926;28;20775;-75
2021/03/27 10:18:31;;;;;;;4.90;4.50;;;;;;;7.55;64.94;101061.81;5061143;28;20406;-74
2021/03/27 10:21:32;;;;;;;5.27;4.43;;;;;;;7.81;64.49;101053.84;5054565;28;20458;-74
2021/03/27 10:24:16;;;;;;;4.60;4.20;;;;;;;8.15;64.44;101054.69;5061187;28;20403;-75
2021/03/27 10:26:49;;;;;;;7.90;5.00;;;;;;;8.26;64.68;101044.56;5061564;28;20716;-76
2021/03/27 10:29:40;;;;;;;5.40;4.90;;;;;;;8.93;62.58;101047.00;5058744;28;20475;-76
2021/03/27 10:32:31;;;;;;;6.13;5.33;;;;;;;9.34;61.59;101039.13;5057714;28;20682;-75
2021/03/27 10:35:20;;;;;;;5.63;4.30;;;;;;;9.46;60.19;101037.59;5076470;28;20429;-74
2021/03/27 10:37:51;;;;;;;4.33;3.90;;;;;;;9.58;59.96;101046.53;5077849;28;20727;-75
2021/03/27 10:40:44;;;;;;;4.83;4.00;;;;;;;9.52;61.42;101045.53;5077717;28;20681;-74
2021/03/27 10:43:32;;;;;;;7.00;4.67;;;;;;;8.97;61.86;101048.81;5066882;28;20415;-76
2021/03/27 10:46:27;;;;;;;4.93;4.53;;;;;;;9.41;61.82;101047.94;5081689;28;20403;-75
2021/03/27 10:48:58;;;;;;;4.70;4.13;;;;;;;8.72;62.36;101057.78;5077607;28;20486;-75
2021/03/27 10:51:37;;;;;;;4.57;4.17;;;;;;;8.90;62.81;101070.31;5078372;28;20403;-75
2021/03/27 10:54:29;;;;;;;6.33;4.47;;;;;;;9.16;60.94;101062.19;5060189;28;20430;-76
2021/03/27 10:57:22;;;;;;;8.03;3.90;;;;;;;9.47;60.17;101058.47;5044638;28;20488;-75
2021/03/27 10:59:47;;;;;;;4.97;4.10;;;;;;;10.04;57.71;101074.22;5078337;28;20419;-75
2021/03/27 11:02:46;;;;;;;4.80;4.30;;;;;;;11.57;54.90;101068.59;5077950;28;20441;-76
2021/03/27 11:05:29;;;;;;;7.97;4.10;;;;;;;11.56;53.64;101077.28;5078201;28;20243;-76
2021/03/27 11:08:32;;;;;;;3.97;3.60;;;;;;;11.94;52.89;101082.91;5050219;28;20489;-74
2021/03/27 11:11:17;;;;;;;4.40;3.93;;;;;;;11.00;55.34;101084.44;5077728;28;20419;-76
2021/03/27 11:14:06;;;;;;;4.40;3.57;;;;;;;10.46;57.40;101094.09;5077925;28;20510;-76
2021/03/27 11:16:51;;;;;;;4.40;4.00;;;;;;;10.37;57.84;101105.22;5077604;28;20411;-75
2021/03/27 11:19:54;;;;;;;5.73;4.60;;;;;;;9.69;59.24;101114.44;5059170;28;20476;-75
2021/03/27 11:22:47;;;;;;;5.20;3.60;;;;;;;9.76;59.17;101110.22;5067907;28;20770;-75
2021/03/27 11:25:49;;;;;;;7.17;4.60;;;;;;;10.52;56.62;101119.38;5075779;28;20477;-75
2021/03/27 11:28:37;;;;;;;5.90;4.20;;;;;;;10.06;56.65;101128.13;5078012;28;20490;-75
2021/03/27 11:31:15;;;;;;;12.87;4.30;;;;;;;10.32;56.32;101130.28;5060431;28;20840;-75
2021/03/27 11:33:59;;;;;;;6.57;4.20;;;;;;;10.47;56.81;101136.66;5077121;28;20446;-75
2021/03/27 11:36:32;;;;;;;6.77;4.37;;;;;;;10.52;54.49;101135.88;5060027;28;20725;-75
2021/03/27 11:39:21;;;;;;;6.43;4.03;;;;;;;11.59;52.33;101135.63;5060488;28;20510;-76
2021/03/27 11:41:58;;;;;;;7.10;4.10;;;;;;;11.05;52.83;101147.97;5077809;28;20416;-75
2021/03/27 11:44:56;;;;;;;6.47;4.20;;;;;;;10.77;53.98;101142.38;5060123;28;20480;-75
2021/03/27 11:47:31;;;;;;;5.53;3.77;;;;;;;10.34;53.93;101149.47;5067835;28;20447;-75
2021/03/27 11:50:29;;;;;;;5.90;4.47;;;;;;;10.38;56.12;101160.84;5059942;28;20545;-75
2021/03/27 11:53:16;;;;;;;8.27;4.60;;;;;;;10.26;54.51;101170.16;5060307;28;20422;-75
2021/03/27 11:55:59;;;;;;;7.70;5.33;;;;;;;10.05;55.76;101181.09;5060546;28;20418;-74
2021/03/27 12:01:44;;;;;;;6.07;4.47;;;;;;;9.29;56.01;101245.44;5057079;28;20484;-75
2021/03/27 12:05:02;;;;;;;5.60;2.93;;;;;;;7.83;61.08;101264.13;5060278;28;20461;-75
2021/03/27 12:07:38;;;;;;;5.10;3.23;;;;;;;8.07;60.55;101274.34;5040763;28;20412;-75
2021/03/27 12:10:22;;;;;;;5.23;3.57;;;;;;;8.29;59.15;101275.81;5049734;28;20564;-75
2021/03/27 12:13:01;;;;;;;3.27;2.97;;;;;;;7.95;60.54;101261.03;5069017;28;20742;-75
2021/03/27 12:15:32;;;;;;;4.10;2.93;;;;;;;7.93;58.68;101242.81;5056935;28;20434;-77
2021/03/27 12:18:12;;;;;;;4.50;2.73;;;;;;;8.28;57.09;101253.31;5060653;28;20806;-76
2021/03/27 12:21:03;;;;;;;3.60;2.50;;;;;;;8.29;54.96;101260.25;5059546;28;20484;-76
2021/03/27 12:23:36;;;;;;;5.47;2.90;;;;;;;8.57;53.62;101259.28;5059221;28;20719;-76
2021/03/27 12:26:41;;;;;;;4.47;2.83;;;;;;;8.84;52.24;101281.66;5061844;28;20568;-76
2021/03/27 12:29:13;;;;;;;7.00;2.80;;;;;;;8.83;53.40;101281.59;5080743;28;20462;-75
2021/03/27 12:31:54;;;;;;;6.47;3.20;;;;;;;7.85;54.94;101289.31;5063229;28;20415;-76
2021/03/27 12:34:29;;;;;;;6.77;3.97;;;;;;;8.30;57.08;101287.97;5063774;28;20411;-76
2021/03/27 12:37:37;;;;;;;6.30;3.60;;;;;;;8.50;56.39;101295.50;5063524;28;20502;-76
2021/03/27 12:40:26;;;;;;;7.17;3.83;;;;;;;8.82;56.72;101298.03;5050258;28;20433;-73